sensor_id;sensor_type;location;lat;lon;timestamp;pressure;altitude;pressure_sealevel;temperature;humidity
34297;BME280;20564;42.902;25.336;2023-02-19T00:02:02;97297.03;;;1.44;100.00
34297;BME280;20564;42.902;25.336;2023-02-19T00:04:33;97292.09;;;1.39;100.00
34297;BME280;20564;42.902;25.336;2023-02-19T00:07:00;97283.28;;;1.26;100.00
34297;BME280;20564;42.902;25.336;2023-02-19T00:09:27;97287.38;;;1.30;100.00
34297;BME280;20564;42.902;25.336;2023-02-19T00:11:59;97290.81;;;1.31;100.00
34297;BME280;20564;42.902;25.336;2023-02-19T00:14:32;97303.47;;;1.37;100.00
34297;BME280;20564;42.902;25.336;2023-02-19T00:17:16;97291.84;;;1.44;100.00
34297;BME280;20564;42.902;25.336;2023-02-19T00:19:43;97291.44;;;1.36;100.00
34297;BME280;20564;42.902;25.336;2023-02-19T00:22:10;97294.84;;;1.36;100.00
34297;BME280;20564;42.902;25.336;2023-02-19T00:24:41;97288.31;;;1.29;100.00
34297;BME280;20564;42.902;25.336;2023-02-19T00:27:08;97294.19;;;1.33;100.00
34297;BME280;20564;42.902;25.336;2023-02-19T00:29:45;97300.66;;;1.24;100.00
34297;BME280;20564;42.902;25.336;2023-02-19T00:32:24;97300.59;;;1.26;100.00
34297;BME280;20564;42.902;25.336;2023-02-19T00:34:59;97282.91;;;1.16;100.00
34297;BME280;20564;42.902;25.336;2023-02-19T00:37:27;97298.94;;;1.25;100.00
34297;BME280;20564;42.902;25.336;2023-02-19T00:40:01;97290.53;;;1.19;100.00
34297;BME280;20564;42.902;25.336;2023-02-19T00:42:32;97277.25;;;1.10;100.00
34297;BME280;20564;42.902;25.336;2023-02-19T00:45:00;97292.81;;;1.26;100.00
34297;BME280;20564;42.902;25.336;2023-02-19T00:48:06;97280.50;;;1.13;100.00
34297;BME280;20564;42.902;25.336;2023-02-19T00:50:33;97290.47;;;1.21;100.00
34297;BME280;20564;42.902;25.336;2023-02-19T00:53:00;97286.13;;;1.22;100.00
34297;BME280;20564;42.902;25.336;2023-02-19T00:55:49;97283.69;;;1.18;100.00
34297;BME280;20564;42.902;25.336;2023-02-19T00:58:27;97273.78;;;1.09;100.00
34297;BME280;20564;42.902;25.336;2023-02-19T01:00:55;97292.31;;;1.19;100.00
34297;BME280;20564;42.902;25.336;2023-02-19T01:03:28;97274.28;;;1.00;100.00
34297;BME280;20564;42.902;25.336;2023-02-19T01:06:25;97269.47;;;1.10;100.00
34297;BME280;20564;42.902;25.336;2023-02-19T01:09:03;97270.88;;;1.15;100.00
34297;BME280;20564;42.902;25.336;2023-02-19T01:11:48;97266.38;;;1.19;100.00
34297;BME280;20564;42.902;25.336;2023-02-19T01:14:31;97270.22;;;1.28;100.00
34297;BME280;20564;42.902;25.336;2023-02-19T01:17:25;97258.69;;;1.17;100.00
34297;BME280;20564;42.902;25.336;2023-02-19T01:20:03;97260.19;;;1.22;100.00
34297;BME280;20564;42.902;25.336;2023-02-19T01:22:34;97278.47;;;1.36;100.00
34297;BME280;20564;42.902;25.336;2023-02-19T01:25:10;97266.38;;;1.35;100.00
34297;BME280;20564;42.902;25.336;2023-02-19T01:27:44;97269.09;;;1.33;100.00
34297;BME280;20564;42.902;25.336;2023-02-19T01:30:25;97245.38;;;1.24;100.00
34297;BME280;20564;42.902;25.336;2023-02-19T01:33:00;97281.94;;;1.35;100.00
34297;BME280;20564;42.902;25.336;2023-02-19T01:35:41;97280.13;;;1.37;100.00
34297;BME280;20564;42.902;25.336;2023-02-19T01:38:10;97273.59;;;1.30;100.00
34297;BME280;20564;42.902;25.336;2023-02-19T01:40:54;97287.63;;;1.26;100.00
34297;BME280;20564;42.902;25.336;2023-02-19T01:43:23;97268.19;;;1.17;100.00
34297;BME280;20564;42.902;25.336;2023-02-19T01:45:58;97269.91;;;1.18;100.00
34297;BME280;20564;42.902;25.336;2023-02-19T01:48:38;97276.16;;;1.14;100.00
34297;BME280;20564;42.902;25.336;2023-02-19T01:51:28;97284.38;;;1.22;100.00
34297;BME280;20564;42.902;25.336;2023-02-19T01:54:11;97267.38;;;1.16;100.00
34297;BME280;20564;42.902;25.336;2023-02-19T01:56:48;97272.72;;;1.13;100.00
34297;BME280;20564;42.902;25.336;2023-02-19T01:59:31;97279.75;;;1.11;100.00
34297;BME280;20564;42.902;25.336;2023-02-19T02:02:03;97275.63;;;1.07;100.00
34297;BME280;20564;42.902;25.336;2023-02-19T02:04:41;97282.28;;;0.95;100.00
34297;BME280;20564;42.902;25.336;2023-02-19T02:07:16;97276.34;;;0.93;100.00
34297;BME280;20564;42.902;25.336;2023-02-19T02:10:07;97283.88;;;0.98;100.00
34297;BME280;20564;42.902;25.336;2023-02-19T02:12:55;97298.69;;;0.96;100.00
34297;BME280;20564;42.902;25.336;2023-02-19T02:15:35;97285.28;;;0.88;100.00
34297;BME280;20564;42.902;25.336;2023-02-19T02:21:19;97314.00;;;0.83;100.00
34297;BME280;20564;42.902;25.336;2023-02-19T02:36:49;97323.84;;;0.59;100.00
34297;BME280;20564;42.902;25.336;2023-02-19T02:39:27;97336.84;;;0.58;100.00
34297;BME280;20564;42.902;25.336;2023-02-19T02:42:10;97341.97;;;0.59;100.00
34297;BME280;20564;42.902;25.336;2023-02-19T02:45:51;97342.16;;;0.55;100.00
34297;BME280;20564;42.902;25.336;2023-02-19T02:54:19;97357.03;;;0.51;100.00
34297;BME280;20564;42.902;25.336;2023-02-19T02:57:08;97350.16;;;0.50;100.00
34297;BME280;20564;42.902;25.336;2023-02-19T02:59:41;97341.34;;;0.54;100.00
34297;BME280;20564;42.902;25.336;2023-02-19T03:02:32;97351.56;;;0.57;100.00
34297;BME280;20564;42.902;25.336;2023-02-19T03:05:19;97356.28;;;0.49;100.00
34297;BME280;20564;42.902;25.336;2023-02-19T03:08:35;97359.16;;;0.43;100.00
34297;BME280;20564;42.902;25.336;2023-02-19T03:11:11;97362.38;;;0.48;100.00
34297;BME280;20564;42.902;25.336;2023-02-19T03:14:18;97359.00;;;0.46;100.00
34297;BME280;20564;42.902;25.336;2023-02-19T03:17:22;97361.69;;;0.44;100.00
34297;BME280;20564;42.902;25.336;2023-02-19T03:20:15;97367.84;;;0.42;100.00
34297;BME280;20564;42.902;25.336;2023-02-19T03:22:48;97364.63;;;0.37;100.00
34297;BME280;20564;42.902;25.336;2023-02-19T03:25:47;97359.78;;;0.48;100.00
34297;BME280;20564;42.902;25.336;2023-02-19T03:28:41;97348.94;;;0.40;100.00
34297;BME280;20564;42.902;25.336;2023-02-19T03:31:40;97358.41;;;0.41;100.00
34297;BME280;20564;42.902;25.336;2023-02-19T03:34:14;97342.22;;;0.36;100.00
34297;BME280;20564;42.902;25.336;2023-02-19T03:36:51;97344.06;;;0.34;100.00
34297;BME280;20564;42.902;25.336;2023-02-19T03:39:22;97361.28;;;0.35;100.00
34297;BME280;20564;42.902;25.336;2023-02-19T03:44:54;97352.19;;;0.26;100.00
34297;BME280;20564;42.902;25.336;2023-02-19T03:47:39;97373.59;;;0.30;100.00
34297;BME280;20564;42.902;25.336;2023-02-19T04:01:05;97358.06;;;0.30;100.00
34297;BME280;20564;42.902;25.336;2023-02-19T04:03:55;97354.47;;;0.32;100.00
34297;BME280;20564;42.902;25.336;2023-02-19T04:06:27;97371.53;;;0.19;100.00
34297;BME280;20564;42.902;25.336;2023-02-19T04:09:00;97371.28;;;0.23;100.00
34297;BME280;20564;42.902;25.336;2023-02-19T04:11:30;97378.94;;;0.27;100.00
34297;BME280;20564;42.902;25.336;2023-02-19T04:14:11;97368.44;;;0.30;100.00
34297;BME280;20564;42.902;25.336;2023-02-19T04:16:47;97376.25;;;0.28;100.00
34297;BME280;20564;42.902;25.336;2023-02-19T04:19:19;97361.88;;;0.22;100.00
34297;BME280;20564;42.902;25.336;2023-02-19T04:21:52;97368.56;;;0.27;100.00
34297;BME280;20564;42.902;25.336;2023-02-19T04:24:38;97367.38;;;0.34;100.00
34297;BME280;20564;42.902;25.336;2023-02-19T04:27:29;97366.53;;;0.33;100.00
34297;BME280;20564;42.902;25.336;2023-02-19T04:30:00;97354.97;;;0.40;100.00
34297;BME280;20564;42.902;25.336;2023-02-19T04:32:32;97347.63;;;0.31;100.00
34297;BME280;20564;42.902;25.336;2023-02-19T04:35:00;97345.66;;;0.36;100.00
34297;BME280;20564;42.902;25.336;2023-02-19T04:37:27;97355.81;;;0.41;100.00
34297;BME280;20564;42.902;25.336;2023-02-19T04:39:55;97358.06;;;0.30;100.00
34297;BME280;20564;42.902;25.336;2023-02-19T04:42:24;97352.13;;;0.28;100.00
34297;BME280;20564;42.902;25.336;2023-02-19T04:44:55;97348.00;;;0.23;100.00
34297;BME280;20564;42.902;25.336;2023-02-19T04:47:23;97358.34;;;0.23;100.00
34297;BME280;20564;42.902;25.336;2023-02-19T04:49:51;97362.41;;;0.10;100.00
34297;BME280;20564;42.902;25.336;2023-02-19T04:52:20;97369.44;;;0.08;100.00
34297;BME280;20564;42.902;25.336;2023-02-19T04:54:47;97367.53;;;0.12;100.00
34297;BME280;20564;42.902;25.336;2023-02-19T04:57:14;97368.44;;;0.11;100.00
34297;BME280;20564;42.902;25.336;2023-02-19T04:59:45;97369.28;;;0.11;100.00
34297;BME280;20564;42.902;25.336;2023-02-19T05:02:21;97364.41;;;0.05;100.00
34297;BME280;20564;42.902;25.336;2023-02-19T05:04:48;97374.88;;;0.02;100.00
34297;BME280;20564;42.902;25.336;2023-02-19T05:07:15;97360.88;;;0.06;100.00
34297;BME280;20564;42.902;25.336;2023-02-19T05:09:53;97358.53;;;0.02;100.00
34297;BME280;20564;42.902;25.336;2023-02-19T05:12:20;97346.88;;;0.10;100.00
34297;BME280;20564;42.902;25.336;2023-02-19T05:15:00;97349.78;;;0.04;100.00
34297;BME280;20564;42.902;25.336;2023-02-19T05:17:34;97360.41;;;-0.02;100.00
34297;BME280;20564;42.902;25.336;2023-02-19T05:20:01;97396.28;;;0.06;100.00
34297;BME280;20564;42.902;25.336;2023-02-19T05:22:29;97394.66;;;0.03;100.00
34297;BME280;20564;42.902;25.336;2023-02-19T05:24:56;97397.41;;;0.00;100.00
34297;BME280;20564;42.902;25.336;2023-02-19T05:27:24;97393.59;;;0.07;100.00
34297;BME280;20564;42.902;25.336;2023-02-19T05:29:52;97391.94;;;0.06;100.00
34297;BME280;20564;42.902;25.336;2023-02-19T05:32:25;97404.38;;;0.17;100.00
34297;BME280;20564;42.902;25.336;2023-02-19T05:34:54;97410.13;;;0.23;100.00
34297;BME280;20564;42.902;25.336;2023-02-19T05:37:24;97428.16;;;0.25;100.00
34297;BME280;20564;42.902;25.336;2023-02-19T05:39:55;97417.41;;;0.34;100.00
34297;BME280;20564;42.902;25.336;2023-02-19T05:42:23;97442.59;;;0.31;100.00
34297;BME280;20564;42.902;25.336;2023-02-19T05:44:50;97433.75;;;0.35;100.00
34297;BME280;20564;42.902;25.336;2023-02-19T05:47:20;97437.53;;;0.46;100.00
34297;BME280;20564;42.902;25.336;2023-02-19T05:49:47;97447.59;;;0.53;100.00
34297;BME280;20564;42.902;25.336;2023-02-19T05:52:14;97442.97;;;0.59;100.00
34297;BME280;20564;42.902;25.336;2023-02-19T05:54:41;97445.44;;;0.62;100.00
34297;BME280;20564;42.902;25.336;2023-02-19T05:57:08;97454.41;;;0.72;100.00
34297;BME280;20564;42.902;25.336;2023-02-19T05:59:35;97455.34;;;0.71;100.00
34297;BME280;20564;42.902;25.336;2023-02-19T06:02:02;97445.44;;;0.80;100.00
34297;BME280;20564;42.902;25.336;2023-02-19T06:04:29;97453.06;;;0.83;100.00
34297;BME280;20564;42.902;25.336;2023-02-19T06:06:56;97444.09;;;0.90;100.00
34297;BME280;20564;42.902;25.336;2023-02-19T06:09:23;97456.75;;;0.96;100.00
34297;BME280;20564;42.902;25.336;2023-02-19T06:11:52;97459.13;;;1.01;100.00
34297;BME280;20564;42.902;25.336;2023-02-19T06:14:22;97470.31;;;1.01;100.00
34297;BME280;20564;42.902;25.336;2023-02-19T06:16:50;97472.69;;;1.06;100.00
34297;BME280;20564;42.902;25.336;2023-02-19T06:19:24;97464.47;;;1.15;100.00
34297;BME280;20564;42.902;25.336;2023-02-19T06:21:51;97471.41;;;1.14;100.00
34297;BME280;20564;42.902;25.336;2023-02-19T06:24:18;97479.03;;;1.17;100.00
34297;BME280;20564;42.902;25.336;2023-02-19T06:26:45;97469.44;;;1.19;100.00
34297;BME280;20564;42.902;25.336;2023-02-19T06:29:12;97466.91;;;1.18;100.00
34297;BME280;20564;42.902;25.336;2023-02-19T06:31:39;97464.09;;;1.23;100.00
34297;BME280;20564;42.902;25.336;2023-02-19T06:34:06;97463.94;;;1.26;100.00
34297;BME280;20564;42.902;25.336;2023-02-19T06:36:33;97462.09;;;1.28;100.00
34297;BME280;20564;42.902;25.336;2023-02-19T06:39:01;97476.91;;;1.43;100.00
34297;BME280;20564;42.902;25.336;2023-02-19T06:41:29;97473.22;;;1.64;100.00
34297;BME280;20564;42.902;25.336;2023-02-19T06:43:56;97472.50;;;1.78;100.00
34297;BME280;20564;42.902;25.336;2023-02-19T06:46:24;97469.78;;;1.97;100.00
34297;BME280;20564;42.902;25.336;2023-02-19T06:48:52;97486.16;;;2.15;100.00
34297;BME280;20564;42.902;25.336;2023-02-19T06:51:19;97476.13;;;2.25;100.00
34297;BME280;20564;42.902;25.336;2023-02-19T06:53:49;97478.34;;;2.48;100.00
34297;BME280;20564;42.902;25.336;2023-02-19T06:56:25;97481.69;;;2.82;100.00
34297;BME280;20564;42.902;25.336;2023-02-19T06:58:57;97471.59;;;3.07;100.00
34297;BME280;20564;42.902;25.336;2023-02-19T07:01:25;97462.13;;;3.36;100.00
34297;BME280;20564;42.902;25.336;2023-02-19T07:03:53;97468.41;;;3.62;100.00
34297;BME280;20564;42.902;25.336;2023-02-19T07:06:21;97462.47;;;3.89;100.00
34297;BME280;20564;42.902;25.336;2023-02-19T07:08:49;97469.06;;;4.23;100.00
34297;BME280;20564;42.902;25.336;2023-02-19T07:11:17;97459.28;;;4.55;100.00
34297;BME280;20564;42.902;25.336;2023-02-19T07:13:53;97451.19;;;4.87;100.00
34297;BME280;20564;42.902;25.336;2023-02-19T07:16:25;97443.97;;;5.18;100.00
34297;BME280;20564;42.902;25.336;2023-02-19T07:18:55;97457.50;;;5.50;100.00
34297;BME280;20564;42.902;25.336;2023-02-19T07:21:25;97440.59;;;5.81;98.18
34297;BME280;20564;42.902;25.336;2023-02-19T07:23:57;97433.53;;;6.09;97.07
34297;BME280;20564;42.902;25.336;2023-02-19T07:26:29;97433.06;;;6.40;93.58
34297;BME280;20564;42.902;25.336;2023-02-19T07:29:15;97430.22;;;6.80;91.18
34297;BME280;20564;42.902;25.336;2023-02-19T07:31:47;97426.75;;;7.04;90.65
34297;BME280;20564;42.902;25.336;2023-02-19T07:34:17;97427.38;;;7.42;89.03
34297;BME280;20564;42.902;25.336;2023-02-19T07:37:39;97422.44;;;7.73;85.68
34297;BME280;20564;42.902;25.336;2023-02-19T07:39:42;97425.81;;;7.97;86.82
34297;BME280;20564;42.902;25.336;2023-02-19T07:42:10;97419.84;;;8.29;85.96
34297;BME280;20564;42.902;25.336;2023-02-19T07:44:43;97419.56;;;8.66;85.67
34297;BME280;20564;42.902;25.336;2023-02-19T07:47:12;97419.94;;;9.05;84.57
34297;BME280;20564;42.902;25.336;2023-02-19T07:49:41;97420.00;;;9.47;81.96
34297;BME280;20564;42.902;25.336;2023-02-19T07:52:17;97412.41;;;9.95;78.04
34297;BME280;20564;42.902;25.336;2023-02-19T07:54:46;97410.63;;;10.57;73.47
34297;BME280;20564;42.902;25.336;2023-02-19T07:57:18;97430.34;;;11.11;70.51
34297;BME280;20564;42.902;25.336;2023-02-19T07:59:50;97413.84;;;11.57;67.89
34297;BME280;20564;42.902;25.336;2023-02-19T08:02:20;97417.44;;;11.86;64.60
34297;BME280;20564;42.902;25.336;2023-02-19T08:05:07;97409.16;;;12.18;61.74
34297;BME280;20564;42.902;25.336;2023-02-19T08:07:51;97417.03;;;12.55;60.53
34297;BME280;20564;42.902;25.336;2023-02-19T08:10:23;97400.50;;;12.81;57.82
34297;BME280;20564;42.902;25.336;2023-02-19T08:13:17;97410.63;;;13.03;56.66
34297;BME280;20564;42.902;25.336;2023-02-19T08:15:50;97401.34;;;13.17;54.75
34297;BME280;20564;42.902;25.336;2023-02-19T08:18:26;97407.03;;;13.40;54.40
34297;BME280;20564;42.902;25.336;2023-02-19T08:20:55;97406.84;;;13.59;53.31
34297;BME280;20564;42.902;25.336;2023-02-19T08:23:29;97391.41;;;13.72;52.26
34297;BME280;20564;42.902;25.336;2023-02-19T08:25:58;97415.44;;;13.79;51.76
34297;BME280;20564;42.902;25.336;2023-02-19T08:28:28;97402.44;;;13.86;51.30
34297;BME280;20564;42.902;25.336;2023-02-19T08:31:04;97406.94;;;13.93;51.40
34297;BME280;20564;42.902;25.336;2023-02-19T08:33:32;97406.38;;;14.08;51.25
34297;BME280;20564;42.902;25.336;2023-02-19T08:36:04;97414.97;;;14.10;50.80
34297;BME280;20564;42.902;25.336;2023-02-19T08:38:40;97405.19;;;14.10;50.23
34297;BME280;20564;42.902;25.336;2023-02-19T08:41:11;97409.25;;;14.22;49.97
34297;BME280;20564;42.902;25.336;2023-02-19T08:43:41;97409.56;;;14.19;50.40
34297;BME280;20564;42.902;25.336;2023-02-19T08:46:12;97407.28;;;14.24;50.33
34297;BME280;20564;42.902;25.336;2023-02-19T08:48:49;97405.75;;;14.48;51.08
34297;BME280;20564;42.902;25.336;2023-02-19T08:51:26;97411.81;;;14.66;49.67
34297;BME280;20564;42.902;25.336;2023-02-19T08:53:55;97403.56;;;14.78;48.92
34297;BME280;20564;42.902;25.336;2023-02-19T08:56:23;97405.31;;;14.69;48.63
34297;BME280;20564;42.902;25.336;2023-02-19T08:58:51;97394.06;;;14.67;48.80
34297;BME280;20564;42.902;25.336;2023-02-19T09:01:24;97404.34;;;14.70;49.31
34297;BME280;20564;42.902;25.336;2023-02-19T09:03:55;97396.53;;;14.60;49.12
34297;BME280;20564;42.902;25.336;2023-02-19T09:06:27;97391.13;;;14.70;48.60
34297;BME280;20564;42.902;25.336;2023-02-19T09:08:56;97380.00;;;14.66;48.64
34297;BME280;20564;42.902;25.336;2023-02-19T09:11:26;97385.47;;;14.73;49.78
34297;BME280;20564;42.902;25.336;2023-02-19T09:13:55;97377.88;;;14.78;48.31
34297;BME280;20564;42.902;25.336;2023-02-19T09:16:40;97380.03;;;14.91;47.88
34297;BME280;20564;42.902;25.336;2023-02-19T09:19:27;97367.81;;;14.98;47.57
34297;BME280;20564;42.902;25.336;2023-02-19T09:21:56;97370.66;;;15.21;47.50
34297;BME280;20564;42.902;25.336;2023-02-19T09:24:25;97349.78;;;15.26;47.53
34297;BME280;20564;42.902;25.336;2023-02-19T09:26:54;97351.41;;;15.27;47.22
34297;BME280;20564;42.902;25.336;2023-02-19T09:29:27;97355.56;;;15.38;47.75
34297;BME280;20564;42.902;25.336;2023-02-19T09:32:07;97348.28;;;15.48;47.36
34297;BME280;20564;42.902;25.336;2023-02-19T09:34:36;97346.25;;;15.50;46.02
34297;BME280;20564;42.902;25.336;2023-02-19T09:37:08;97344.94;;;15.62;46.23
34297;BME280;20564;42.902;25.336;2023-02-19T09:39:48;97349.78;;;15.67;46.49
34297;BME280;20564;42.902;25.336;2023-02-19T09:42:23;97344.78;;;15.72;45.97
34297;BME280;20564;42.902;25.336;2023-02-19T09:44:58;97338.81;;;15.78;45.71
34297;BME280;20564;42.902;25.336;2023-02-19T09:47:32;97340.31;;;15.81;45.73
34297;BME280;20564;42.902;25.336;2023-02-19T09:50:07;97338.31;;;15.75;45.12
34297;BME280;20564;42.902;25.336;2023-02-19T09:53:11;97341.91;;;15.90;46.04
34297;BME280;20564;42.902;25.336;2023-02-19T09:55:42;97326.00;;;15.90;45.55
34297;BME280;20564;42.902;25.336;2023-02-19T09:59:03;97323.94;;;16.08;45.62
34297;BME280;20564;42.902;25.336;2023-02-19T10:01:12;97317.41;;;16.27;45.63
34297;BME280;20564;42.902;25.336;2023-02-19T10:03:45;97319.03;;;16.36;44.92
34297;BME280;20564;42.902;25.336;2023-02-19T10:06:20;97320.22;;;16.26;44.17
34297;BME280;20564;42.902;25.336;2023-02-19T10:09:24;97318.53;;;16.33;44.25
34297;BME280;20564;42.902;25.336;2023-02-19T10:11:47;97329.13;;;16.41;44.47
34297;BME280;20564;42.902;25.336;2023-02-19T10:14:36;97339.41;;;16.44;44.09
34297;BME280;20564;42.902;25.336;2023-02-19T10:17:05;97323.81;;;16.41;44.15
34297;BME280;20564;42.902;25.336;2023-02-19T10:19:32;97319.84;;;16.37;44.32
34297;BME280;20564;42.902;25.336;2023-02-19T10:22:00;97311.91;;;16.29;44.33
34297;BME280;20564;42.902;25.336;2023-02-19T10:24:29;97305.94;;;16.27;44.99
34297;BME280;20564;42.902;25.336;2023-02-19T10:26:59;97299.75;;;16.43;44.61
34297;BME280;20564;42.902;25.336;2023-02-19T10:29:38;97306.31;;;16.55;44.59
34297;BME280;20564;42.902;25.336;2023-02-19T10:32:17;97301.19;;;16.53;43.41
34297;BME280;20564;42.902;25.336;2023-02-19T10:34:47;97315.53;;;16.36;43.91
34297;BME280;20564;42.902;25.336;2023-02-19T10:37:16;97300.91;;;16.40;44.53
34297;BME280;20564;42.902;25.336;2023-02-19T10:39:46;97295.16;;;16.59;44.61
34297;BME280;20564;42.902;25.336;2023-02-19T10:42:21;97283.63;;;16.67;44.37
34297;BME280;20564;42.902;25.336;2023-02-19T10:44:56;97279.13;;;16.76;43.73
34297;BME280;20564;42.902;25.336;2023-02-19T10:47:29;97285.13;;;16.70;43.61
34297;BME280;20564;42.902;25.336;2023-02-19T10:50:02;97296.69;;;16.54;44.33
34297;BME280;20564;42.902;25.336;2023-02-19T10:52:40;97284.41;;;16.53;43.73
34297;BME280;20564;42.902;25.336;2023-02-19T10:55:19;97274.59;;;16.53;43.56
34297;BME280;20564;42.902;25.336;2023-02-19T10:57:56;97283.22;;;16.55;44.12
34297;BME280;20564;42.902;25.336;2023-02-19T11:00:30;97276.63;;;16.74;44.44
34297;BME280;20564;42.902;25.336;2023-02-19T11:03:20;97285.59;;;16.73;44.63
34297;BME280;20564;42.902;25.336;2023-02-19T11:06:01;97278.50;;;16.66;43.95
34297;BME280;20564;42.902;25.336;2023-02-19T11:08:37;97274.69;;;16.68;44.00
34297;BME280;20564;42.902;25.336;2023-02-19T11:11:28;97262.03;;;16.70;44.07
34297;BME280;20564;42.902;25.336;2023-02-19T11:13:59;97268.31;;;16.77;44.04
34297;BME280;20564;42.902;25.336;2023-02-19T11:16:41;97267.44;;;16.85;43.77
34297;BME280;20564;42.902;25.336;2023-02-19T11:19:25;97275.47;;;16.77;44.70
34297;BME280;20564;42.902;25.336;2023-02-19T11:21:54;97263.84;;;16.70;44.60
34297;BME280;20564;42.902;25.336;2023-02-19T11:24:32;97269.38;;;16.60;44.44
34297;BME280;20564;42.902;25.336;2023-02-19T11:27:06;97272.25;;;16.58;44.31
34297;BME280;20564;42.902;25.336;2023-02-19T11:29:43;97278.84;;;16.62;44.83
34297;BME280;20564;42.902;25.336;2023-02-19T11:32:27;97272.84;;;16.69;44.75
34297;BME280;20564;42.902;25.336;2023-02-19T11:35:19;97266.88;;;16.75;44.67
34297;BME280;20564;42.902;25.336;2023-02-19T11:43:23;97252.69;;;16.82;44.01
34297;BME280;20564;42.902;25.336;2023-02-19T12:12:28;97233.34;;;17.26;42.88
34297;BME280;20564;42.902;25.336;2023-02-19T12:15:24;97235.13;;;17.11;43.23
34297;BME280;20564;42.902;25.336;2023-02-19T12:24:04;97234.13;;;16.97;43.71
34297;BME280;20564;42.902;25.336;2023-02-19T12:26:43;97220.38;;;17.08;44.28
34297;BME280;20564;42.902;25.336;2023-02-19T12:29:33;97208.66;;;17.18;43.77
34297;BME280;20564;42.902;25.336;2023-02-19T12:32:46;97217.09;;;17.36;44.15
34297;BME280;20564;42.902;25.336;2023-02-19T12:38:25;97207.03;;;17.46;42.72
34297;BME280;20564;42.902;25.336;2023-02-19T12:41:56;97198.56;;;17.28;42.76
34297;BME280;20564;42.902;25.336;2023-02-19T12:44:21;97204.91;;;17.27;42.93
34297;BME280;20564;42.902;25.336;2023-02-19T12:46:59;97205.13;;;17.02;43.01
34297;BME280;20564;42.902;25.336;2023-02-19T12:49:38;97194.41;;;16.96;43.53
34297;BME280;20564;42.902;25.336;2023-02-19T12:52:20;97194.75;;;16.93;43.73
34297;BME280;20564;42.902;25.336;2023-02-19T12:55:00;97191.09;;;16.94;44.17
34297;BME280;20564;42.902;25.336;2023-02-19T12:57:36;97188.13;;;17.11;43.52
34297;BME280;20564;42.902;25.336;2023-02-19T13:03:34;97177.19;;;17.21;43.11
34297;BME280;20564;42.902;25.336;2023-02-19T13:06:32;97176.28;;;17.29;42.79
34297;BME280;20564;42.902;25.336;2023-02-19T13:09:14;97167.56;;;17.35;43.79
34297;BME280;20564;42.902;25.336;2023-02-19T13:12:06;97168.84;;;17.39;43.19
34297;BME280;20564;42.902;25.336;2023-02-19T13:14:36;97166.91;;;17.33;43.45
34297;BME280;20564;42.902;25.336;2023-02-19T13:17:31;97161.53;;;17.41;43.25
34297;BME280;20564;42.902;25.336;2023-02-19T13:20:35;97152.34;;;17.44;43.33
34297;BME280;20564;42.902;25.336;2023-02-19T13:23:19;97144.66;;;17.34;43.47
34297;BME280;20564;42.902;25.336;2023-02-19T13:26:42;97144.66;;;17.34;43.26
34297;BME280;20564;42.902;25.336;2023-02-19T13:32:13;97130.56;;;17.55;42.44
34297;BME280;20564;42.902;25.336;2023-02-19T13:34:58;97132.16;;;17.49;42.86
34297;BME280;20564;42.902;25.336;2023-02-19T13:37:40;97132.41;;;17.54;43.16
34297;BME280;20564;42.902;25.336;2023-02-19T13:43:31;97119.47;;;17.51;43.36
34297;BME280;20564;42.902;25.336;2023-02-19T13:46:11;97115.06;;;17.58;42.45
34297;BME280;20564;42.902;25.336;2023-02-19T13:48:41;97099.75;;;17.60;42.19
34297;BME280;20564;42.902;25.336;2023-02-19T13:56:39;97102.69;;;17.36;42.78
34297;BME280;20564;42.902;25.336;2023-02-19T13:59:33;97103.16;;;17.25;41.96
34297;BME280;20564;42.902;25.336;2023-02-19T14:04:41;97094.00;;;17.13;42.75
34297;BME280;20564;42.902;25.336;2023-02-19T14:07:48;97093.81;;;16.99;43.45
34297;BME280;20564;42.902;25.336;2023-02-19T14:10:54;97089.16;;;16.86;45.09
34297;BME280;20564;42.902;25.336;2023-02-19T14:14:02;97092.25;;;16.75;43.96
34297;BME280;20564;42.902;25.336;2023-02-19T14:19:13;97089.16;;;16.63;44.15
34297;BME280;20564;42.902;25.336;2023-02-19T14:21:42;97083.47;;;16.52;45.32
34297;BME280;20564;42.902;25.336;2023-02-19T14:24:14;97083.28;;;16.53;45.68
34297;BME280;20564;42.902;25.336;2023-02-19T14:26:44;97081.63;;;16.52;46.11
34297;BME280;20564;42.902;25.336;2023-02-19T14:29:16;97084.66;;;16.49;46.40
34297;BME280;20564;42.902;25.336;2023-02-19T14:31:45;97078.34;;;16.50;45.43
34297;BME280;20564;42.902;25.336;2023-02-19T14:34:25;97084.59;;;16.57;45.37
34297;BME280;20564;42.902;25.336;2023-02-19T14:36:58;97082.94;;;16.56;46.34
34297;BME280;20564;42.902;25.336;2023-02-19T14:39:33;97075.13;;;16.55;45.56
34297;BME280;20564;42.902;25.336;2023-02-19T14:42:07;97082.56;;;16.59;45.18
34297;BME280;20564;42.902;25.336;2023-02-19T14:44:57;97084.59;;;16.57;45.83
34297;BME280;20564;42.902;25.336;2023-02-19T14:47:33;97085.88;;;16.61;45.72
34297;BME280;20564;42.902;25.336;2023-02-19T14:50:19;97074.97;;;16.56;45.64
34297;BME280;20564;42.902;25.336;2023-02-19T14:52:50;97069.44;;;16.43;45.36
34297;BME280;20564;42.902;25.336;2023-02-19T14:55:34;97065.75;;;16.44;46.18
34297;BME280;20564;42.902;25.336;2023-02-19T14:58:31;97068.69;;;16.34;46.06
34297;BME280;20564;42.902;25.336;2023-02-19T15:01:01;97064.31;;;16.19;45.80
34297;BME280;20564;42.902;25.336;2023-02-19T15:03:36;97071.47;;;16.18;45.68
34297;BME280;20564;42.902;25.336;2023-02-19T15:06:13;97072.00;;;16.13;45.75
34297;BME280;20564;42.902;25.336;2023-02-19T15:09:04;97068.09;;;16.01;46.35
34297;BME280;20564;42.902;25.336;2023-02-19T15:11:34;97069.31;;;15.99;46.23
34297;BME280;20564;42.902;25.336;2023-02-19T15:14:06;97067.41;;;15.84;48.32
34297;BME280;20564;42.902;25.336;2023-02-19T15:16:41;97071.63;;;15.71;49.01